createdAt,value
2022-09-23T00:02:23.463Z,31.20
2022-09-23T00:05:58.961Z,25.70
2022-09-23T00:09:30.168Z,24.30
2022-09-23T00:13:33.884Z,23.90
2022-09-23T00:17:18.728Z,23.20
2022-09-23T00:21:15.540Z,22.40
2022-09-23T00:24:59.144Z,27.10
2022-09-23T00:28:35.835Z,23.10
2022-09-23T00:32:00.427Z,23.60
2022-09-23T00:35:44.780Z,22.40
2022-09-23T00:39:38.378Z,23.10
2022-09-23T00:43:51.323Z,23.90
2022-09-23T00:47:40.216Z,23.70
2022-09-23T00:51:44.024Z,25.80
2022-09-23T00:55:36.437Z,24.60
2022-09-23T00:59:31.827Z,24.60
2022-09-23T01:03:35.571Z,26.30
2022-09-23T01:07:17.066Z,24.50
2022-09-23T01:11:20.780Z,24.60
2022-09-23T01:15:39.954Z,20.80
2022-09-23T01:19:45.928Z,20.40
2022-09-23T01:23:28.115Z,19.30
2022-09-23T01:27:14.810Z,19.20
2022-09-23T01:31:10.384Z,20.10
2022-09-23T01:35:29.077Z,16.50
2022-09-23T01:39:13.626Z,20.40
2022-09-23T01:43:26.587Z,30.00
2022-09-23T01:47:31.655Z,19.10
2022-09-23T01:51:10.660Z,20.40
2022-09-23T01:55:26.386Z,15.80
2022-09-23T01:59:21.328Z,17.90
2022-09-23T02:03:23.677Z,18.40
2022-09-23T02:07:26.938Z,13.80
2022-09-23T02:11:36.598Z,15.50
2022-09-23T02:15:34.636Z,17.90
2022-09-23T02:19:32.440Z,22.00
2022-09-23T02:23:42.161Z,15.60
2022-09-23T02:27:44.495Z,16.80
2022-09-23T02:31:42.300Z,17.50
2022-09-23T02:35:50.392Z,17.30
2022-09-23T02:39:38.465Z,14.90
2022-09-23T02:43:27.630Z,14.00
2022-09-23T02:47:14.371Z,13.70
2022-09-23T02:51:16.115Z,13.00
2022-09-23T02:55:19.221Z,14.70
2022-09-23T02:59:23.118Z,12.10
2022-09-23T03:03:17.886Z,13.30
2022-09-23T03:07:11.908Z,16.10
2022-09-23T03:11:17.602Z,14.70
2022-09-23T03:15:29.535Z,16.20
2022-09-23T03:19:32.807Z,14.70
2022-09-23T03:23:24.211Z,16.10
2022-09-23T03:27:29.591Z,15.30
2022-09-23T03:31:15.373Z,13.40
2022-09-23T03:35:19.119Z,15.30
2022-09-23T03:39:14.132Z,15.50
2022-09-23T03:43:12.130Z,14.10
2022-09-23T03:47:12.004Z,12.90
2022-09-23T03:51:08.948Z,17.80
2022-09-23T03:55:05.871Z,12.10
2022-09-23T03:58:54.398Z,13.30
2022-09-23T04:02:58.398Z,15.20
2022-09-23T04:06:44.717Z,15.60
2022-09-23T04:10:20.316Z,16.50
2022-09-23T04:14:17.414Z,16.50
2022-09-23T04:18:14.331Z,14.40
2022-09-23T04:22:18.327Z,14.70
2022-09-23T04:26:25.123Z,17.50
2022-09-23T04:30:21.099Z,18.70
2022-09-23T04:34:16.053Z,30.00
2022-09-23T04:38:13.930Z,25.60
2022-09-23T04:42:10.344Z,25.00
2022-09-23T04:46:14.103Z,25.60
2022-09-23T04:50:08.012Z,35.70
2022-09-23T04:53:55.544Z,29.70
2022-09-23T04:57:48.806Z,31.00
2022-09-23T05:01:56.859Z,29.50
2022-09-23T05:06:00.647Z,29.00
2022-09-23T05:09:58.750Z,33.70
2022-09-23T05:14:02.171Z,41.90
2022-09-23T05:17:56.778Z,25.80
2022-09-23T05:22:00.534Z,31.20
2022-09-23T05:25:40.029Z,32.40
2022-09-23T05:29:37.536Z,30.40
2022-09-23T05:33:20.825Z,32.70
2022-09-23T05:36:45.408Z,28.60
2022-09-23T05:40:31.814Z,27.50
2022-09-23T05:44:35.617Z,35.40
2022-09-23T05:48:39.410Z,31.30
2022-09-23T05:52:16.314Z,35.40
2022-09-23T05:56:13.732Z,31.40
2022-09-23T06:00:11.963Z,39.70
2022-09-23T06:03:45.590Z,36.70
2022-09-23T06:07:41.281Z,43.60
2022-09-23T06:11:37.134Z,38.80
2022-09-23T06:15:21.909Z,45.60
2022-09-23T06:19:11.621Z,42.10
2022-09-23T06:22:20.874Z,41.80
2022-09-23T06:26:00.901Z,41.80
2022-09-23T06:29:47.237Z,54.80
2022-09-23T06:33:43.725Z,49.80
2022-09-23T06:37:17.576Z,48.90
2022-09-23T06:40:47.479Z,49.70
2022-09-23T06:44:22.635Z,41.80
2022-09-23T06:48:01.502Z,38.90
2022-09-23T06:51:39.049Z,33.90
2022-09-23T06:55:36.175Z,33.70
2022-09-23T06:59:39.941Z,30.70
2022-09-23T07:03:03.579Z,29.80
2022-09-23T07:06:44.152Z,24.20
2022-09-23T07:09:54.767Z,26.90
2022-09-23T07:13:41.040Z,19.10
2022-09-23T07:17:30.682Z,17.20
2022-09-23T07:20:37.797Z,21.80
2022-09-23T07:24:12.537Z,22.70
2022-09-23T07:27:31.268Z,22.40
2022-09-23T07:31:32.589Z,21.00
2022-09-23T07:34:51.122Z,22.70
2022-09-23T07:38:34.650Z,19.50
2022-09-23T07:41:48.272Z,18.60
2022-09-23T07:45:29.756Z,21.50
2022-09-23T07:49:05.042Z,25.10
2022-09-23T07:52:10.953Z,23.80
2022-09-23T07:56:04.736Z,27.90
2022-09-23T07:59:29.258Z,23.00
2022-09-23T08:03:05.797Z,22.20
2022-09-23T08:07:01.122Z,20.20
2022-09-23T08:10:52.305Z,25.50
2022-09-23T08:14:56.189Z,25.60
2022-09-23T08:18:42.630Z,26.70
2022-09-23T08:22:18.824Z,23.60
2022-09-23T08:26:19.949Z,22.20
2022-09-23T08:30:05.878Z,18.50
2022-09-23T08:33:49.336Z,18.50
2022-09-23T08:37:12.896Z,18.70
2022-09-23T08:41:12.781Z,21.80
2022-09-23T08:45:03.530Z,17.00
2022-09-23T08:48:56.317Z,14.80
2022-09-23T08:52:55.688Z,15.30
2022-09-23T08:56:52.935Z,14.20
2022-09-23T09:00:46.653Z,11.40
2022-09-23T09:08:24.969Z,13.30
2022-09-23T09:12:19.503Z,9.70
2022-09-23T09:16:13.863Z,14.80
2022-09-23T09:19:55.396Z,11.30
2022-09-23T09:23:49.508Z,9.30
2022-09-23T09:27:33.556Z,8.40
2022-09-23T09:30:50.792Z,9.10
2022-09-23T09:34:16.135Z,8.90
2022-09-23T09:38:22.336Z,9.60
2022-09-23T09:42:10.747Z,6.50
2022-09-23T09:45:59.271Z,7.00
2022-09-23T09:49:55.971Z,7.70
2022-09-23T09:54:00.857Z,5.90
2022-09-23T09:57:44.768Z,8.20
2022-09-23T10:01:46.326Z,4.60
2022-09-23T10:05:16.270Z,4.90
2022-09-23T10:09:19.899Z,7.30
2022-09-23T10:13:12.861Z,4.60
2022-09-23T10:17:09.302Z,6.20
2022-09-23T10:21:04.313Z,2.00
2022-09-23T10:24:21.611Z,3.40
2022-09-23T10:28:02.611Z,2.50
2022-09-23T10:32:06.949Z,14.90
2022-09-23T10:35:38.140Z,9.60
2022-09-23T10:39:19.530Z,3.30
2022-09-23T10:43:33.687Z,9.40
2022-09-23T10:46:52.118Z,4.30
2022-09-23T10:50:53.890Z,6.20
2022-09-23T10:54:43.828Z,6.00
2022-09-23T10:58:40.963Z,8.10
2022-09-23T11:02:44.394Z,8.40
2022-09-23T11:06:53.428Z,5.40
2022-09-23T11:10:28.926Z,3.30
2022-09-23T11:14:22.965Z,3.50
2022-09-23T11:18:21.448Z,7.90
2022-09-23T11:21:54.477Z,4.40
2022-09-23T11:25:21.184Z,4.00
2022-09-23T11:29:21.714Z,3.70
2022-09-23T11:33:15.193Z,4.10
2022-09-23T11:36:47.657Z,4.80
2022-09-23T11:40:19.194Z,3.70
2022-09-23T11:43:59.857Z,3.30
2022-09-23T11:47:19.642Z,3.70
2022-09-23T11:50:56.041Z,5.50
2022-09-23T11:54:21.068Z,2.30
2022-09-23T11:58:22.490Z,2.70
2022-09-23T12:01:53.300Z,6.80
2022-09-23T12:05:45.972Z,5.00
2022-09-23T12:09:47.159Z,3.30
2022-09-23T12:13:16.361Z,3.40
2022-09-23T12:17:27.157Z,3.10
2022-09-23T12:21:45.776Z,1.80
2022-09-23T12:25:35.347Z,4.20
2022-09-23T12:29:08.839Z,3.90
2022-09-23T12:36:43.142Z,1.90
2022-09-23T12:43:51.663Z,1.90
2022-09-23T12:47:36.369Z,2.60
2022-09-23T12:51:16.476Z,4.40
2022-09-23T12:54:44.516Z,3.50
2022-09-23T12:58:24.721Z,4.30
2022-09-23T13:01:36.346Z,4.70
2022-09-23T13:05:38.719Z,2.00
2022-09-23T13:08:58.156Z,3.40
2022-09-23T13:12:16.834Z,3.30
2022-09-23T13:15:52.332Z,1.80
2022-09-23T13:19:16.548Z,3.50
2022-09-23T13:23:20.291Z,4.30
2022-09-23T13:26:54.750Z,1.90
2022-09-23T13:30:25.062Z,2.60
2022-09-23T13:34:01.263Z,1.90
2022-09-23T13:37:36.247Z,2.40
2022-09-23T13:41:13.992Z,3.30
2022-09-23T13:44:53.798Z,2.90
2022-09-23T13:48:42.724Z,3.20
2022-09-23T13:52:29.517Z,3.00
2022-09-23T13:56:01.522Z,4.80
2022-09-23T14:00:19.121Z,5.40
2022-09-23T14:04:29.280Z,3.00
2022-09-23T14:08:22.949Z,3.90
2022-09-23T14:11:59.180Z,4.20
2022-09-23T14:15:45.708Z,5.20
2022-09-23T14:19:49.462Z,4.00
2022-09-23T14:23:32.138Z,3.00
2022-09-23T14:27:19.409Z,3.40
2022-09-23T14:31:11.970Z,2.70
2022-09-23T14:35:22.619Z,4.90
2022-09-23T14:39:13.524Z,3.30
2022-09-23T14:42:40.162Z,4.90
2022-09-23T14:46:00.901Z,12.00
2022-09-23T14:49:55.505Z,4.80
2022-09-23T14:53:44.175Z,10.00
2022-09-23T14:57:10.642Z,8.70
2022-09-23T15:00:38.895Z,7.90
2022-09-23T15:03:54.401Z,6.70
2022-09-23T15:07:41.679Z,20.20
2022-09-23T15:10:46.844Z,33.60
2022-09-23T15:14:37.168Z,8.20
2022-09-23T15:17:48.244Z,5.50
2022-09-23T15:21:40.215Z,6.70
2022-09-23T15:25:35.832Z,11.60
2022-09-23T15:29:39.779Z,10.00
2022-09-23T15:33:30.310Z,8.70
2022-09-23T15:37:36.336Z,15.10
2022-09-23T15:41:12.477Z,9.00
2022-09-23T15:44:57.026Z,6.10
2022-09-23T15:48:35.894Z,5.40
2022-09-23T15:52:28.594Z,4.50
2022-09-23T15:56:03.614Z,9.50
2022-09-23T15:59:59.069Z,5.10
2022-09-23T16:03:45.396Z,14.70
2022-09-23T16:07:49.310Z,6.90
2022-09-23T16:11:48.517Z,8.40
2022-09-23T16:15:39.656Z,8.80
2022-09-23T16:19:43.439Z,10.70
2022-09-23T16:23:47.303Z,10.80
2022-09-23T16:27:40.967Z,13.10
2022-09-23T16:31:27.295Z,14.20
2022-09-23T16:35:25.130Z,16.40
2022-09-23T16:39:11.723Z,17.60
2022-09-23T16:42:56.721Z,20.70
2022-09-23T16:46:53.216Z,20.40
2022-09-23T16:50:44.412Z,25.60
2022-09-23T16:54:37.441Z,22.10
2022-09-23T16:58:31.185Z,27.50
2022-09-23T17:02:08.222Z,30.00
2022-09-23T17:05:56.765Z,30.30
2022-09-23T17:09:12.017Z,29.40
2022-09-23T17:13:18.758Z,34.90
2022-09-23T17:17:05.072Z,29.80
2022-09-23T17:20:48.863Z,32.60
2022-09-23T17:24:35.255Z,31.30
2022-09-23T17:28:38.999Z,27.50
2022-09-23T17:32:32.815Z,34.90
2022-09-23T17:36:19.591Z,38.00
2022-09-23T17:40:16.770Z,32.10
2022-09-23T17:44:00.923Z,36.40
2022-09-23T17:47:49.386Z,37.10
2022-09-23T17:51:46.485Z,29.10
2022-09-23T17:55:02.870Z,33.00
2022-09-23T17:58:54.490Z,31.60
2022-09-23T18:02:41.279Z,33.90
2022-09-23T18:06:47.766Z,35.80
2022-09-23T18:10:51.614Z,51.90
2022-09-23T18:14:21.420Z,44.20
2022-09-23T18:17:57.774Z,50.70
2022-09-23T18:22:01.681Z,50.20
2022-09-23T18:26:05.887Z,47.10
2022-09-23T18:30:10.045Z,47.10
2022-09-23T18:34:13.946Z,50.20
2022-09-23T18:38:04.885Z,68.00
2022-09-23T18:41:38.651Z,87.00
2022-09-23T18:45:35.481Z,84.20
2022-09-23T18:49:37.675Z,77.20
2022-09-23T18:53:30.709Z,82.30
2022-09-23T18:57:25.062Z,87.80
2022-09-23T19:01:20.481Z,89.70
2022-09-23T19:05:07.564Z,100.60
2022-09-23T19:09:06.233Z,102.60
2022-09-23T19:12:41.531Z,106.70
2022-09-23T19:16:21.076Z,130.20
2022-09-23T19:20:18.066Z,130.60
2022-09-23T19:24:24.801Z,134.50
2022-09-23T19:28:08.472Z,135.00
2022-09-23T19:32:05.754Z,131.40
2022-09-23T19:36:09.531Z,155.90
2022-09-23T19:40:13.267Z,143.10
2022-09-23T19:44:10.200Z,158.50
2022-09-23T19:48:07.101Z,160.60
2022-09-23T19:52:11.063Z,143.80
2022-09-23T19:56:15.231Z,139.10
2022-09-23T20:00:19.173Z,134.50
2022-09-23T20:04:23.101Z,125.40
2022-09-23T20:08:21.856Z,126.30
2022-09-23T20:12:25.662Z,116.40
2022-09-23T20:16:12.198Z,113.30
2022-09-23T20:20:16.257Z,116.50
2022-09-23T20:24:00.715Z,108.10
2022-09-23T20:28:04.511Z,111.60
2022-09-23T20:32:08.329Z,115.70
2022-09-23T20:36:12.123Z,105.70
2022-09-23T20:40:01.975Z,95.30
2022-09-23T20:44:05.872Z,84.40
2022-09-23T20:48:09.687Z,71.60
2022-09-23T20:52:02.934Z,70.10
2022-09-23T20:56:06.874Z,67.40
2022-09-23T21:00:03.846Z,62.80
2022-09-23T21:04:00.209Z,59.40
2022-09-23T21:08:04.127Z,52.10
2022-09-23T21:12:08.675Z,49.20
2022-09-23T21:16:12.638Z,49.10
2022-09-23T21:20:16.566Z,48.70
2022-09-23T21:28:10.036Z,49.70
2022-09-23T21:31:49.837Z,47.90
2022-09-23T21:35:55.047Z,44.80
2022-09-23T21:39:45.631Z,48.90
2022-09-23T21:43:30.931Z,44.00
2022-09-23T21:47:10.969Z,44.00
2022-09-23T21:51:14.803Z,52.90
2022-09-23T21:55:18.723Z,42.80
2022-09-23T21:59:05.161Z,41.50
2022-09-23T22:03:08.877Z,43.40
2022-09-23T22:06:54.590Z,42.80
2022-09-23T22:10:57.043Z,42.00
2022-09-23T22:14:41.334Z,42.60
2022-09-23T22:18:34.916Z,43.50
2022-09-23T22:22:28.710Z,43.40
2022-09-23T22:26:25.393Z,45.90
2022-09-23T22:30:27.408Z,44.30
2022-09-23T22:34:03.942Z,41.90
2022-09-23T22:38:07.940Z,46.30
2022-09-23T22:41:52.604Z,42.70
2022-09-23T22:45:39.301Z,35.20
2022-09-23T22:49:44.155Z,41.00
2022-09-23T22:53:47.847Z,34.40
2022-09-23T22:57:21.674Z,33.60
2022-09-23T23:01:25.762Z,34.20
2022-09-23T23:05:29.951Z,33.90
2022-09-23T23:09:12.673Z,35.80
2022-09-23T23:12:58.672Z,34.20
2022-09-23T23:16:55.180Z,32.90
2022-09-23T23:20:58.833Z,34.30
2022-09-23T23:24:55.848Z,37.10
2022-09-23T23:28:17.985Z,32.60
2022-09-23T23:32:11.736Z,32.20
2022-09-23T23:35:49.562Z,34.60
2022-09-23T23:39:15.902Z,36.00
2022-09-23T23:42:41.481Z,38.80
2022-09-23T23:46:40.658Z,33.30
2022-09-23T23:50:44.488Z,33.20
2022-09-23T23:54:36.832Z,33.50
2022-09-23T23:58:34.686Z,38.40
